<?xml version="1.0" encoding="UTF-8" standalone="no" ?>
<gpx xmlns="http://www.topografix.com/GPX/1/1" xmlns:xsi="http://www.w3.org/2001/XMLSchema-instance" xsi:schemaLocation="http://www.topografix.com/GPX/1/1 http://www.topografix.com/GPX/1/1/gpx.xsd" version="1.1" creator="VisuGPX - https://www.visugpx.com">
  <metadata>
    <name>Saverne Boucle de 12 Km</name>
    <desc><![CDATA[Saverne 
Haut-Barr
Saint Gall
Suivre le parcourt VTT N° G3 
]]></desc>
  </metadata>
  <trk>
    <name><![CDATA[Holux2010/06/15_18:15]]></name>
    <trkseg>
      <trkpt lat="48.73374" lon="7.34789">
        <ele>274.047028</ele>
        <time>2010-06-15T16:25:36Z</time>
      </trkpt>
      <trkpt lat="48.73191" lon="7.34481">
        <ele>297.781403</ele>
        <time>2010-06-15T16:27:25Z</time>
      </trkpt>
      <trkpt lat="48.73176" lon="7.34461">
        <ele>298.92984</ele>
        <time>2010-06-15T16:27:32Z</time>
      </trkpt>
      <trkpt lat="48.73161" lon="7.34443">
        <ele>298.99234</ele>
        <time>2010-06-15T16:27:39Z</time>
      </trkpt>
      <trkpt lat="48.73146" lon="7.34427">
        <ele>300.36734</ele>
        <time>2010-06-15T16:27:45Z</time>
      </trkpt>
      <trkpt lat="48.73133" lon="7.34404">
        <ele>301.601715</ele>
        <time>2010-06-15T16:27:52Z</time>
      </trkpt>
      <trkpt lat="48.73118" lon="7.34385">
        <ele>305.156403</ele>
        <time>2010-06-15T16:27:58Z</time>
      </trkpt>
      <trkpt lat="48.73105" lon="7.34364">
        <ele>301.828278</ele>
        <time>2010-06-15T16:28:06Z</time>
      </trkpt>
      <trkpt lat="48.73089" lon="7.34347">
        <ele>300.406403</ele>
        <time>2010-06-15T16:28:14Z</time>
      </trkpt>
      <trkpt lat="48.73075" lon="7.34329">
        <ele>297.797028</ele>
        <time>2010-06-15T16:28:22Z</time>
      </trkpt>
      <trkpt lat="48.73058" lon="7.34315">
        <ele>296.33609</ele>
        <time>2010-06-15T16:28:28Z</time>
      </trkpt>
      <trkpt lat="48.73042" lon="7.34302">
        <ele>294.02359</ele>
        <time>2010-06-15T16:28:34Z</time>
      </trkpt>
      <trkpt lat="48.73026" lon="7.34286">
        <ele>291.609528</ele>
        <time>2010-06-15T16:28:40Z</time>
      </trkpt>
      <trkpt lat="48.73015" lon="7.34265">
        <ele>286.86734</ele>
        <time>2010-06-15T16:28:49Z</time>
      </trkpt>
      <trkpt lat="48.72992" lon="7.34243">
        <ele>284.906403</ele>
        <time>2010-06-15T16:28:55Z</time>
      </trkpt>
      <trkpt lat="48.72976" lon="7.34226">
        <ele>283.953278</ele>
        <time>2010-06-15T16:29:00Z</time>
      </trkpt>
      <trkpt lat="48.72961" lon="7.34207">
        <ele>282.343903</ele>
        <time>2010-06-15T16:29:06Z</time>
      </trkpt>
      <trkpt lat="48.72947" lon="7.34189">
        <ele>282.218903</ele>
        <time>2010-06-15T16:29:14Z</time>
      </trkpt>
      <trkpt lat="48.72935" lon="7.3417">
        <ele>280.86734</ele>
        <time>2010-06-15T16:29:20Z</time>
      </trkpt>
      <trkpt lat="48.72928" lon="7.34142">
        <ele>278.476715</ele>
        <time>2010-06-15T16:29:29Z</time>
      </trkpt>
      <trkpt lat="48.72914" lon="7.34124">
        <ele>277.89859</ele>
        <time>2010-06-15T16:29:36Z</time>
      </trkpt>
      <trkpt lat="48.729" lon="7.34102">
        <ele>279.515778</ele>
        <time>2010-06-15T16:29:43Z</time>
      </trkpt>
      <trkpt lat="48.72884" lon="7.34082">
        <ele>278.984528</ele>
        <time>2010-06-15T16:29:59Z</time>
      </trkpt>
      <trkpt lat="48.72874" lon="7.34057">
        <ele>278.86734</ele>
        <time>2010-06-15T16:30:06Z</time>
      </trkpt>
      <trkpt lat="48.72862" lon="7.34034">
        <ele>279.382965</ele>
        <time>2010-06-15T16:30:13Z</time>
      </trkpt>
      <trkpt lat="48.72857" lon="7.34006">
        <ele>279.250153</ele>
        <time>2010-06-15T16:30:20Z</time>
      </trkpt>
      <trkpt lat="48.72855" lon="7.33977">
        <ele>279.390778</ele>
        <time>2010-06-15T16:30:29Z</time>
      </trkpt>
      <trkpt lat="48.72844" lon="7.33954">
        <ele>278.539215</ele>
        <time>2010-06-15T16:30:35Z</time>
      </trkpt>
      <trkpt lat="48.72836" lon="7.33924">
        <ele>280.515778</ele>
        <time>2010-06-15T16:30:41Z</time>
      </trkpt>
      <trkpt lat="48.7283" lon="7.33897">
        <ele>282.140778</ele>
        <time>2010-06-15T16:30:46Z</time>
      </trkpt>
      <trkpt lat="48.72822" lon="7.33866">
        <ele>283.906403</ele>
        <time>2010-06-15T16:30:52Z</time>
      </trkpt>
      <trkpt lat="48.72823" lon="7.33836">
        <ele>286.922028</ele>
        <time>2010-06-15T16:30:58Z</time>
      </trkpt>
      <trkpt lat="48.72816" lon="7.3381">
        <ele>291.101715</ele>
        <time>2010-06-15T16:31:03Z</time>
      </trkpt>
      <trkpt lat="48.72807" lon="7.33782">
        <ele>295.843903</ele>
        <time>2010-06-15T16:31:09Z</time>
      </trkpt>
      <trkpt lat="48.72793" lon="7.33761">
        <ele>301.132965</ele>
        <time>2010-06-15T16:31:15Z</time>
      </trkpt>
      <trkpt lat="48.72781" lon="7.33737">
        <ele>306.015778</ele>
        <time>2010-06-15T16:31:23Z</time>
      </trkpt>
      <trkpt lat="48.7277" lon="7.33714">
        <ele>310.125153</ele>
        <time>2010-06-15T16:31:30Z</time>
      </trkpt>
      <trkpt lat="48.72755" lon="7.33692">
        <ele>310.218903</ele>
        <time>2010-06-15T16:31:36Z</time>
      </trkpt>
      <trkpt lat="48.72738" lon="7.33673">
        <ele>310.218903</ele>
        <time>2010-06-15T16:31:43Z</time>
      </trkpt>
      <trkpt lat="48.72722" lon="7.33656">
        <ele>308.656403</ele>
        <time>2010-06-15T16:31:49Z</time>
      </trkpt>
      <trkpt lat="48.7271" lon="7.33633">
        <ele>308.789215</ele>
        <time>2010-06-15T16:31:56Z</time>
      </trkpt>
      <trkpt lat="48.72695" lon="7.33613">
        <ele>309.289215</ele>
        <time>2010-06-15T16:32:03Z</time>
      </trkpt>
      <trkpt lat="48.72681" lon="7.33596">
        <ele>311.507965</ele>
        <time>2010-06-15T16:32:10Z</time>
      </trkpt>
      <trkpt lat="48.72666" lon="7.3358">
        <ele>314.52359</ele>
        <time>2010-06-15T16:32:17Z</time>
      </trkpt>
      <trkpt lat="48.7265" lon="7.33565">
        <ele>316.500153</ele>
        <time>2010-06-15T16:32:24Z</time>
      </trkpt>
      <trkpt lat="48.72635" lon="7.33551">
        <ele>320.062653</ele>
        <time>2010-06-15T16:32:30Z</time>
      </trkpt>
      <trkpt lat="48.72619" lon="7.33536">
        <ele>321.46109</ele>
        <time>2010-06-15T16:32:38Z</time>
      </trkpt>
      <trkpt lat="48.72602" lon="7.33522">
        <ele>322.49234</ele>
        <time>2010-06-15T16:32:45Z</time>
      </trkpt>
      <trkpt lat="48.72586" lon="7.33509">
        <ele>322.351715</ele>
        <time>2010-06-15T16:32:51Z</time>
      </trkpt>
      <trkpt lat="48.7257" lon="7.33495">
        <ele>321.195465</ele>
        <time>2010-06-15T16:32:57Z</time>
      </trkpt>
      <trkpt lat="48.72552" lon="7.3348">
        <ele>319.828278</ele>
        <time>2010-06-15T16:33:04Z</time>
      </trkpt>
      <trkpt lat="48.72534" lon="7.33466">
        <ele>319.414215</ele>
        <time>2010-06-15T16:33:11Z</time>
      </trkpt>
      <trkpt lat="48.72516" lon="7.33456">
        <ele>318.101715</ele>
        <time>2010-06-15T16:33:18Z</time>
      </trkpt>
      <trkpt lat="48.72499" lon="7.33441">
        <ele>316.02359</ele>
        <time>2010-06-15T16:33:27Z</time>
      </trkpt>
      <trkpt lat="48.7248" lon="7.3343">
        <ele>314.21109</ele>
        <time>2010-06-15T16:33:33Z</time>
      </trkpt>
      <trkpt lat="48.72463" lon="7.33414">
        <ele>312.226715</ele>
        <time>2010-06-15T16:33:40Z</time>
      </trkpt>
      <trkpt lat="48.72447" lon="7.33402">
        <ele>311.132965</ele>
        <time>2010-06-15T16:33:47Z</time>
      </trkpt>
      <trkpt lat="48.72431" lon="7.33385">
        <ele>311.031403</ele>
        <time>2010-06-15T16:33:57Z</time>
      </trkpt>
      <trkpt lat="48.72417" lon="7.33366">
        <ele>308.42984</ele>
        <time>2010-06-15T16:34:05Z</time>
      </trkpt>
      <trkpt lat="48.72401" lon="7.33348">
        <ele>308.74234</ele>
        <time>2010-06-15T16:34:14Z</time>
      </trkpt>
      <trkpt lat="48.72384" lon="7.33334">
        <ele>306.14859</ele>
        <time>2010-06-15T16:34:21Z</time>
      </trkpt>
      <trkpt lat="48.72369" lon="7.3332">
        <ele>305.343903</ele>
        <time>2010-06-15T16:34:28Z</time>
      </trkpt>
      <trkpt lat="48.72352" lon="7.33305">
        <ele>303.375153</ele>
        <time>2010-06-15T16:34:37Z</time>
      </trkpt>
      <trkpt lat="48.72336" lon="7.33293">
        <ele>304.234528</ele>
        <time>2010-06-15T16:34:49Z</time>
      </trkpt>
      <trkpt lat="48.72318" lon="7.33283">
        <ele>304.74234</ele>
        <time>2010-06-15T16:36:13Z</time>
      </trkpt>
      <trkpt lat="48.723" lon="7.33269">
        <ele>305.382965</ele>
        <time>2010-06-15T16:36:21Z</time>
      </trkpt>
      <trkpt lat="48.72283" lon="7.33264">
        <ele>307.414215</ele>
        <time>2010-06-15T16:37:03Z</time>
      </trkpt>
      <trkpt lat="48.72265" lon="7.33259">
        <ele>312.39859</ele>
        <time>2010-06-15T16:37:34Z</time>
      </trkpt>
      <trkpt lat="48.72245" lon="7.33253">
        <ele>316.21109</ele>
        <time>2010-06-15T16:37:50Z</time>
      </trkpt>
      <trkpt lat="48.72226" lon="7.33247">
        <ele>316.812653</ele>
        <time>2010-06-15T16:37:59Z</time>
      </trkpt>
      <trkpt lat="48.72209" lon="7.33232">
        <ele>319.953278</ele>
        <time>2010-06-15T16:38:07Z</time>
      </trkpt>
      <trkpt lat="48.72191" lon="7.3322">
        <ele>324.812653</ele>
        <time>2010-06-15T16:38:11Z</time>
      </trkpt>
      <trkpt lat="48.72176" lon="7.33199">
        <ele>325.656403</ele>
        <time>2010-06-15T16:38:16Z</time>
      </trkpt>
      <trkpt lat="48.72162" lon="7.3318">
        <ele>329.593903</ele>
        <time>2010-06-15T16:38:20Z</time>
      </trkpt>
      <trkpt lat="48.72152" lon="7.33156">
        <ele>334.093903</ele>
        <time>2010-06-15T16:38:25Z</time>
      </trkpt>
      <trkpt lat="48.72146" lon="7.33128">
        <ele>336.797028</ele>
        <time>2010-06-15T16:38:30Z</time>
      </trkpt>
      <trkpt lat="48.7214" lon="7.33098">
        <ele>337.593903</ele>
        <time>2010-06-15T16:38:36Z</time>
      </trkpt>
      <trkpt lat="48.72139" lon="7.3307">
        <ele>342.476715</ele>
        <time>2010-06-15T16:38:42Z</time>
      </trkpt>
      <trkpt lat="48.72138" lon="7.3304">
        <ele>345.101715</ele>
        <time>2010-06-15T16:38:48Z</time>
      </trkpt>
      <trkpt lat="48.72139" lon="7.3301">
        <ele>345.070465</ele>
        <time>2010-06-15T16:38:54Z</time>
      </trkpt>
      <trkpt lat="48.72139" lon="7.32978">
        <ele>345.609528</ele>
        <time>2010-06-15T16:39:01Z</time>
      </trkpt>
      <trkpt lat="48.7214" lon="7.32948">
        <ele>346.226715</ele>
        <time>2010-06-15T16:39:07Z</time>
      </trkpt>
      <trkpt lat="48.72139" lon="7.32919">
        <ele>345.187653</ele>
        <time>2010-06-15T16:39:13Z</time>
      </trkpt>
      <trkpt lat="48.72138" lon="7.32888">
        <ele>346.156403</ele>
        <time>2010-06-15T16:39:19Z</time>
      </trkpt>
      <trkpt lat="48.72133" lon="7.32857">
        <ele>344.382965</ele>
        <time>2010-06-15T16:39:25Z</time>
      </trkpt>
      <trkpt lat="48.72132" lon="7.32825">
        <ele>345.484528</ele>
        <time>2010-06-15T16:39:32Z</time>
      </trkpt>
      <trkpt lat="48.72119" lon="7.32801">
        <ele>347.14859</ele>
        <time>2010-06-15T16:39:37Z</time>
      </trkpt>
      <trkpt lat="48.72108" lon="7.32777">
        <ele>349.101715</ele>
        <time>2010-06-15T16:39:42Z</time>
      </trkpt>
      <trkpt lat="48.72092" lon="7.32758">
        <ele>347.664215</ele>
        <time>2010-06-15T16:39:47Z</time>
      </trkpt>
      <trkpt lat="48.72073" lon="7.32744">
        <ele>347.414215</ele>
        <time>2010-06-15T16:39:53Z</time>
      </trkpt>
      <trkpt lat="48.72055" lon="7.3273">
        <ele>348.203278</ele>
        <time>2010-06-15T16:39:59Z</time>
      </trkpt>
      <trkpt lat="48.72036" lon="7.3272">
        <ele>349.656403</ele>
        <time>2010-06-15T16:40:05Z</time>
      </trkpt>
      <trkpt lat="48.72018" lon="7.32717">
        <ele>350.000153</ele>
        <time>2010-06-15T16:40:10Z</time>
      </trkpt>
      <trkpt lat="48.71998" lon="7.32716">
        <ele>349.468903</ele>
        <time>2010-06-15T16:40:16Z</time>
      </trkpt>
      <trkpt lat="48.71977" lon="7.32716">
        <ele>349.140778</ele>
        <time>2010-06-15T16:40:22Z</time>
      </trkpt>
      <trkpt lat="48.71956" lon="7.32716">
        <ele>347.92984</ele>
        <time>2010-06-15T16:40:28Z</time>
      </trkpt>
      <trkpt lat="48.71938" lon="7.32721">
        <ele>347.92984</ele>
        <time>2010-06-15T16:40:34Z</time>
      </trkpt>
      <trkpt lat="48.71919" lon="7.32728">
        <ele>346.172028</ele>
        <time>2010-06-15T16:40:41Z</time>
      </trkpt>
      <trkpt lat="48.71901" lon="7.3274">
        <ele>347.406403</ele>
        <time>2010-06-15T16:40:47Z</time>
      </trkpt>
      <trkpt lat="48.71881" lon="7.32754">
        <ele>347.99234</ele>
        <time>2010-06-15T16:40:53Z</time>
      </trkpt>
      <trkpt lat="48.71865" lon="7.3277">
        <ele>348.289215</ele>
        <time>2010-06-15T16:40:58Z</time>
      </trkpt>
      <trkpt lat="48.71847" lon="7.32785">
        <ele>347.797028</ele>
        <time>2010-06-15T16:41:04Z</time>
      </trkpt>
      <trkpt lat="48.71828" lon="7.32795">
        <ele>349.164215</ele>
        <time>2010-06-15T16:41:11Z</time>
      </trkpt>
      <trkpt lat="48.71811" lon="7.32804">
        <ele>350.265778</ele>
        <time>2010-06-15T16:41:16Z</time>
      </trkpt>
      <trkpt lat="48.71791" lon="7.32805">
        <ele>350.49234</ele>
        <time>2010-06-15T16:41:22Z</time>
      </trkpt>
      <trkpt lat="48.71773" lon="7.32805">
        <ele>349.218903</ele>
        <time>2010-06-15T16:41:28Z</time>
      </trkpt>
      <trkpt lat="48.71754" lon="7.32802">
        <ele>347.890778</ele>
        <time>2010-06-15T16:41:34Z</time>
      </trkpt>
      <trkpt lat="48.71734" lon="7.328">
        <ele>347.101715</ele>
        <time>2010-06-15T16:41:40Z</time>
      </trkpt>
      <trkpt lat="48.71714" lon="7.32806">
        <ele>346.406403</ele>
        <time>2010-06-15T16:41:46Z</time>
      </trkpt>
      <trkpt lat="48.71694" lon="7.32812">
        <ele>345.601715</ele>
        <time>2010-06-15T16:41:52Z</time>
      </trkpt>
      <trkpt lat="48.71676" lon="7.32826">
        <ele>346.039215</ele>
        <time>2010-06-15T16:41:57Z</time>
      </trkpt>
      <trkpt lat="48.71663" lon="7.32849">
        <ele>346.578278</ele>
        <time>2010-06-15T16:42:03Z</time>
      </trkpt>
      <trkpt lat="48.71651" lon="7.32874">
        <ele>345.875153</ele>
        <time>2010-06-15T16:42:09Z</time>
      </trkpt>
      <trkpt lat="48.71638" lon="7.32894">
        <ele>347.937653</ele>
        <time>2010-06-15T16:42:15Z</time>
      </trkpt>
      <trkpt lat="48.7162" lon="7.32888">
        <ele>350.390778</ele>
        <time>2010-06-15T16:42:21Z</time>
      </trkpt>
      <trkpt lat="48.71599" lon="7.32886">
        <ele>358.101715</ele>
        <time>2010-06-15T16:42:26Z</time>
      </trkpt>
      <trkpt lat="48.7158" lon="7.32881">
        <ele>356.359528</ele>
        <time>2010-06-15T16:42:34Z</time>
      </trkpt>
      <trkpt lat="48.7156" lon="7.32879">
        <ele>356.601715</ele>
        <time>2010-06-15T16:42:40Z</time>
      </trkpt>
      <trkpt lat="48.7154" lon="7.32871">
        <ele>355.172028</ele>
        <time>2010-06-15T16:42:46Z</time>
      </trkpt>
      <trkpt lat="48.71521" lon="7.32871">
        <ele>355.109528</ele>
        <time>2010-06-15T16:42:52Z</time>
      </trkpt>
      <trkpt lat="48.71503" lon="7.32867">
        <ele>352.507965</ele>
        <time>2010-06-15T16:42:58Z</time>
      </trkpt>
      <trkpt lat="48.71484" lon="7.32869">
        <ele>351.21109</ele>
        <time>2010-06-15T16:43:03Z</time>
      </trkpt>
      <trkpt lat="48.71463" lon="7.32872">
        <ele>348.109528</ele>
        <time>2010-06-15T16:43:10Z</time>
      </trkpt>
      <trkpt lat="48.71444" lon="7.3288">
        <ele>345.52359</ele>
        <time>2010-06-15T16:43:17Z</time>
      </trkpt>
      <trkpt lat="48.71426" lon="7.32882">
        <ele>342.953278</ele>
        <time>2010-06-15T16:43:24Z</time>
      </trkpt>
      <trkpt lat="48.71408" lon="7.32886">
        <ele>345.42984</ele>
        <time>2010-06-15T16:43:36Z</time>
      </trkpt>
      <trkpt lat="48.71391" lon="7.32887">
        <ele>351.859528</ele>
        <time>2010-06-15T16:43:42Z</time>
      </trkpt>
      <trkpt lat="48.71371" lon="7.32888">
        <ele>351.851715</ele>
        <time>2010-06-15T16:43:52Z</time>
      </trkpt>
      <trkpt lat="48.71353" lon="7.32887">
        <ele>349.08609</ele>
        <time>2010-06-15T16:43:59Z</time>
      </trkpt>
      <trkpt lat="48.71335" lon="7.32895">
        <ele>346.781403</ele>
        <time>2010-06-15T16:44:06Z</time>
      </trkpt>
      <trkpt lat="48.71315" lon="7.329">
        <ele>343.578278</ele>
        <time>2010-06-15T16:44:18Z</time>
      </trkpt>
      <trkpt lat="48.71296" lon="7.32897">
        <ele>341.672028</ele>
        <time>2010-06-15T16:44:27Z</time>
      </trkpt>
      <trkpt lat="48.71277" lon="7.32894">
        <ele>340.953278</ele>
        <time>2010-06-15T16:44:30Z</time>
      </trkpt>
      <trkpt lat="48.71257" lon="7.3289">
        <ele>343.24234</ele>
        <time>2010-06-15T16:44:36Z</time>
      </trkpt>
      <trkpt lat="48.7124" lon="7.32872">
        <ele>346.476715</ele>
        <time>2010-06-15T16:44:43Z</time>
      </trkpt>
      <trkpt lat="48.71224" lon="7.32851">
        <ele>350.578278</ele>
        <time>2010-06-15T16:44:48Z</time>
      </trkpt>
      <trkpt lat="48.71207" lon="7.32834">
        <ele>352.562653</ele>
        <time>2010-06-15T16:44:53Z</time>
      </trkpt>
      <trkpt lat="48.71189" lon="7.32818">
        <ele>351.820465</ele>
        <time>2010-06-15T16:44:57Z</time>
      </trkpt>
      <trkpt lat="48.71174" lon="7.32796">
        <ele>352.976715</ele>
        <time>2010-06-15T16:45:03Z</time>
      </trkpt>
      <trkpt lat="48.71161" lon="7.32776">
        <ele>354.507965</ele>
        <time>2010-06-15T16:45:08Z</time>
      </trkpt>
      <trkpt lat="48.71144" lon="7.3276">
        <ele>352.484528</ele>
        <time>2010-06-15T16:45:15Z</time>
      </trkpt>
      <trkpt lat="48.71127" lon="7.32746">
        <ele>351.71109</ele>
        <time>2010-06-15T16:45:22Z</time>
      </trkpt>
      <trkpt lat="48.71114" lon="7.32722">
        <ele>351.031403</ele>
        <time>2010-06-15T16:45:28Z</time>
      </trkpt>
      <trkpt lat="48.71106" lon="7.32697">
        <ele>351.382965</ele>
        <time>2010-06-15T16:45:32Z</time>
      </trkpt>
      <trkpt lat="48.71105" lon="7.32669">
        <ele>350.71109</ele>
        <time>2010-06-15T16:45:37Z</time>
      </trkpt>
      <trkpt lat="48.71103" lon="7.32639">
        <ele>351.172028</ele>
        <time>2010-06-15T16:45:43Z</time>
      </trkpt>
      <trkpt lat="48.71118" lon="7.32618">
        <ele>351.351715</ele>
        <time>2010-06-15T16:45:48Z</time>
      </trkpt>
      <trkpt lat="48.71134" lon="7.32595">
        <ele>349.922028</ele>
        <time>2010-06-15T16:45:52Z</time>
      </trkpt>
      <trkpt lat="48.71151" lon="7.32568">
        <ele>349.781403</ele>
        <time>2010-06-15T16:45:56Z</time>
      </trkpt>
      <trkpt lat="48.71167" lon="7.32542">
        <ele>351.859528</ele>
        <time>2010-06-15T16:45:59Z</time>
      </trkpt>
      <trkpt lat="48.71185" lon="7.32519">
        <ele>352.132965</ele>
        <time>2010-06-15T16:46:02Z</time>
      </trkpt>
      <trkpt lat="48.71203" lon="7.32503">
        <ele>351.55484</ele>
        <time>2010-06-15T16:46:05Z</time>
      </trkpt>
      <trkpt lat="48.71222" lon="7.32483">
        <ele>351.515778</ele>
        <time>2010-06-15T16:46:11Z</time>
      </trkpt>
      <trkpt lat="48.71206" lon="7.32495">
        <ele>359.27359</ele>
        <time>2010-06-15T16:46:21Z</time>
      </trkpt>
      <trkpt lat="48.7119" lon="7.32508">
        <ele>364.343903</ele>
        <time>2010-06-15T16:46:28Z</time>
      </trkpt>
      <trkpt lat="48.71173" lon="7.32524">
        <ele>368.02359</ele>
        <time>2010-06-15T16:46:36Z</time>
      </trkpt>
      <trkpt lat="48.71154" lon="7.32538">
        <ele>368.297028</ele>
        <time>2010-06-15T16:46:43Z</time>
      </trkpt>
      <trkpt lat="48.71137" lon="7.32554">
        <ele>369.922028</ele>
        <time>2010-06-15T16:46:49Z</time>
      </trkpt>
      <trkpt lat="48.71122" lon="7.32573">
        <ele>373.49234</ele>
        <time>2010-06-15T16:46:55Z</time>
      </trkpt>
      <trkpt lat="48.71109" lon="7.32596">
        <ele>378.265778</ele>
        <time>2010-06-15T16:47:01Z</time>
      </trkpt>
      <trkpt lat="48.71098" lon="7.32616">
        <ele>382.164215</ele>
        <time>2010-06-15T16:47:07Z</time>
      </trkpt>
      <trkpt lat="48.71083" lon="7.32638">
        <ele>389.047028</ele>
        <time>2010-06-15T16:47:14Z</time>
      </trkpt>
      <trkpt lat="48.71073" lon="7.32661">
        <ele>392.351715</ele>
        <time>2010-06-15T16:47:21Z</time>
      </trkpt>
      <trkpt lat="48.71077" lon="7.32693">
        <ele>399.601715</ele>
        <time>2010-06-15T16:47:29Z</time>
      </trkpt>
      <trkpt lat="48.7109" lon="7.32722">
        <ele>405.593903</ele>
        <time>2010-06-15T16:47:37Z</time>
      </trkpt>
      <trkpt lat="48.71103" lon="7.32746">
        <ele>407.945465</ele>
        <time>2010-06-15T16:47:44Z</time>
      </trkpt>
      <trkpt lat="48.71116" lon="7.32767">
        <ele>408.30484</ele>
        <time>2010-06-15T16:47:54Z</time>
      </trkpt>
      <trkpt lat="48.71132" lon="7.32783">
        <ele>404.672028</ele>
        <time>2010-06-15T16:48:04Z</time>
      </trkpt>
      <trkpt lat="48.71144" lon="7.32805">
        <ele>400.039215</ele>
        <time>2010-06-15T16:49:57Z</time>
      </trkpt>
      <trkpt lat="48.71153" lon="7.32829">
        <ele>397.703278</ele>
        <time>2010-06-15T16:50:06Z</time>
      </trkpt>
      <trkpt lat="48.71161" lon="7.32854">
        <ele>397.726715</ele>
        <time>2010-06-15T16:50:14Z</time>
      </trkpt>
      <trkpt lat="48.7117" lon="7.32878">
        <ele>398.92984</ele>
        <time>2010-06-15T16:50:25Z</time>
      </trkpt>
      <trkpt lat="48.71178" lon="7.32904">
        <ele>398.74234</ele>
        <time>2010-06-15T16:50:36Z</time>
      </trkpt>
      <trkpt lat="48.71186" lon="7.32929">
        <ele>400.500153</ele>
        <time>2010-06-15T16:50:44Z</time>
      </trkpt>
      <trkpt lat="48.71196" lon="7.32952">
        <ele>402.61734</ele>
        <time>2010-06-15T16:50:52Z</time>
      </trkpt>
      <trkpt lat="48.71207" lon="7.32973">
        <ele>404.507965</ele>
        <time>2010-06-15T16:51:04Z</time>
      </trkpt>
      <trkpt lat="48.71223" lon="7.32989">
        <ele>404.664215</ele>
        <time>2010-06-15T16:51:09Z</time>
      </trkpt>
      <trkpt lat="48.7124" lon="7.33">
        <ele>405.547028</ele>
        <time>2010-06-15T16:51:18Z</time>
      </trkpt>
      <trkpt lat="48.71256" lon="7.33011">
        <ele>403.33609</ele>
        <time>2010-06-15T16:51:27Z</time>
      </trkpt>
      <trkpt lat="48.71273" lon="7.33023">
        <ele>403.562653</ele>
        <time>2010-06-15T16:51:38Z</time>
      </trkpt>
      <trkpt lat="48.71291" lon="7.33036">
        <ele>402.74234</ele>
        <time>2010-06-15T16:51:54Z</time>
      </trkpt>
      <trkpt lat="48.71309" lon="7.33041">
        <ele>400.289215</ele>
        <time>2010-06-15T16:52:05Z</time>
      </trkpt>
      <trkpt lat="48.71329" lon="7.33044">
        <ele>400.007965</ele>
        <time>2010-06-15T16:52:18Z</time>
      </trkpt>
      <trkpt lat="48.71349" lon="7.33044">
        <ele>399.789215</ele>
        <time>2010-06-15T16:52:31Z</time>
      </trkpt>
      <trkpt lat="48.71369" lon="7.33046">
        <ele>401.093903</ele>
        <time>2010-06-15T16:52:42Z</time>
      </trkpt>
      <trkpt lat="48.71389" lon="7.33047">
        <ele>405.445465</ele>
        <time>2010-06-15T16:52:51Z</time>
      </trkpt>
      <trkpt lat="48.71407" lon="7.33048">
        <ele>409.289215</ele>
        <time>2010-06-15T16:52:58Z</time>
      </trkpt>
      <trkpt lat="48.71425" lon="7.33046">
        <ele>411.703278</ele>
        <time>2010-06-15T16:53:07Z</time>
      </trkpt>
      <trkpt lat="48.71443" lon="7.33049">
        <ele>410.289215</ele>
        <time>2010-06-15T16:53:16Z</time>
      </trkpt>
      <trkpt lat="48.71464" lon="7.33057">
        <ele>409.914215</ele>
        <time>2010-06-15T16:53:28Z</time>
      </trkpt>
      <trkpt lat="48.71483" lon="7.3306">
        <ele>407.914215</ele>
        <time>2010-06-15T16:53:38Z</time>
      </trkpt>
      <trkpt lat="48.715" lon="7.33067">
        <ele>404.726715</ele>
        <time>2010-06-15T16:53:48Z</time>
      </trkpt>
      <trkpt lat="48.71518" lon="7.33077">
        <ele>401.281403</ele>
        <time>2010-06-15T16:54:00Z</time>
      </trkpt>
      <trkpt lat="48.71499" lon="7.33074">
        <ele>401.86734</ele>
        <time>2010-06-15T16:54:13Z</time>
      </trkpt>
      <trkpt lat="48.71482" lon="7.33066">
        <ele>406.80484</ele>
        <time>2010-06-15T16:54:25Z</time>
      </trkpt>
      <trkpt lat="48.71462" lon="7.33059">
        <ele>404.820465</ele>
        <time>2010-06-15T16:54:32Z</time>
      </trkpt>
      <trkpt lat="48.71444" lon="7.33061">
        <ele>401.578278</ele>
        <time>2010-06-15T16:54:37Z</time>
      </trkpt>
      <trkpt lat="48.71425" lon="7.33067">
        <ele>398.828278</ele>
        <time>2010-06-15T16:54:42Z</time>
      </trkpt>
      <trkpt lat="48.71404" lon="7.33075">
        <ele>396.96109</ele>
        <time>2010-06-15T16:54:47Z</time>
      </trkpt>
      <trkpt lat="48.71382" lon="7.33083">
        <ele>393.64859</ele>
        <time>2010-06-15T16:54:52Z</time>
      </trkpt>
      <trkpt lat="48.7136" lon="7.33093">
        <ele>390.484528</ele>
        <time>2010-06-15T16:54:57Z</time>
      </trkpt>
      <trkpt lat="48.7134" lon="7.33102">
        <ele>387.656403</ele>
        <time>2010-06-15T16:55:01Z</time>
      </trkpt>
      <trkpt lat="48.71321" lon="7.33109">
        <ele>388.664215</ele>
        <time>2010-06-15T16:55:05Z</time>
      </trkpt>
      <trkpt lat="48.71301" lon="7.3311">
        <ele>387.328278</ele>
        <time>2010-06-15T16:55:09Z</time>
      </trkpt>
      <trkpt lat="48.71281" lon="7.33108">
        <ele>388.187653</ele>
        <time>2010-06-15T16:55:13Z</time>
      </trkpt>
      <trkpt lat="48.71258" lon="7.33112">
        <ele>387.382965</ele>
        <time>2010-06-15T16:55:18Z</time>
      </trkpt>
      <trkpt lat="48.71241" lon="7.33123">
        <ele>385.945465</ele>
        <time>2010-06-15T16:55:22Z</time>
      </trkpt>
      <trkpt lat="48.71222" lon="7.33135">
        <ele>386.67984</ele>
        <time>2010-06-15T16:55:26Z</time>
      </trkpt>
      <trkpt lat="48.71201" lon="7.33144">
        <ele>393.859528</ele>
        <time>2010-06-15T16:55:30Z</time>
      </trkpt>
      <trkpt lat="48.71184" lon="7.33153">
        <ele>400.55484</ele>
        <time>2010-06-15T16:55:34Z</time>
      </trkpt>
      <trkpt lat="48.71167" lon="7.33152">
        <ele>406.476715</ele>
        <time>2010-06-15T16:55:40Z</time>
      </trkpt>
      <trkpt lat="48.71153" lon="7.33137">
        <ele>417.078278</ele>
        <time>2010-06-15T16:55:47Z</time>
      </trkpt>
      <trkpt lat="48.71138" lon="7.33118">
        <ele>422.351715</ele>
        <time>2010-06-15T16:55:56Z</time>
      </trkpt>
      <trkpt lat="48.71132" lon="7.33116">
        <ele>425.89859</ele>
        <time>2010-06-15T16:59:02Z</time>
      </trkpt>
      <trkpt lat="48.71123" lon="7.33092">
        <ele>422.039215</ele>
        <time>2010-06-15T16:59:11Z</time>
      </trkpt>
      <trkpt lat="48.71111" lon="7.33071">
        <ele>423.976715</ele>
        <time>2010-06-15T16:59:18Z</time>
      </trkpt>
      <trkpt lat="48.71101" lon="7.33049">
        <ele>426.984528</ele>
        <time>2010-06-15T16:59:26Z</time>
      </trkpt>
      <trkpt lat="48.71089" lon="7.33025">
        <ele>428.609528</ele>
        <time>2010-06-15T16:59:35Z</time>
      </trkpt>
      <trkpt lat="48.71081" lon="7.33">
        <ele>429.468903</ele>
        <time>2010-06-15T16:59:45Z</time>
      </trkpt>
      <trkpt lat="48.71069" lon="7.32977">
        <ele>431.414215</ele>
        <time>2010-06-15T16:59:54Z</time>
      </trkpt>
      <trkpt lat="48.71056" lon="7.32957">
        <ele>433.156403</ele>
        <time>2010-06-15T17:00:06Z</time>
      </trkpt>
      <trkpt lat="48.71043" lon="7.32939">
        <ele>437.843903</ele>
        <time>2010-06-15T17:00:17Z</time>
      </trkpt>
      <trkpt lat="48.71033" lon="7.32916">
        <ele>439.49234</ele>
        <time>2010-06-15T17:00:28Z</time>
      </trkpt>
      <trkpt lat="48.71018" lon="7.32899">
        <ele>440.562653</ele>
        <time>2010-06-15T17:00:41Z</time>
      </trkpt>
      <trkpt lat="48.71005" lon="7.32878">
        <ele>441.890778</ele>
        <time>2010-06-15T17:00:53Z</time>
      </trkpt>
      <trkpt lat="48.7099" lon="7.3286">
        <ele>442.906403</ele>
        <time>2010-06-15T17:01:01Z</time>
      </trkpt>
      <trkpt lat="48.70972" lon="7.32844">
        <ele>442.734528</ele>
        <time>2010-06-15T17:01:09Z</time>
      </trkpt>
      <trkpt lat="48.70955" lon="7.32832">
        <ele>440.789215</ele>
        <time>2010-06-15T17:01:16Z</time>
      </trkpt>
      <trkpt lat="48.70938" lon="7.32822">
        <ele>440.734528</ele>
        <time>2010-06-15T17:01:22Z</time>
      </trkpt>
      <trkpt lat="48.70922" lon="7.32807">
        <ele>443.570465</ele>
        <time>2010-06-15T17:01:28Z</time>
      </trkpt>
      <trkpt lat="48.70915" lon="7.32781">
        <ele>443.52359</ele>
        <time>2010-06-15T17:01:35Z</time>
      </trkpt>
      <trkpt lat="48.70913" lon="7.32751">
        <ele>444.11734</ele>
        <time>2010-06-15T17:01:41Z</time>
      </trkpt>
      <trkpt lat="48.70916" lon="7.32723">
        <ele>443.976715</ele>
        <time>2010-06-15T17:01:46Z</time>
      </trkpt>
      <trkpt lat="48.70921" lon="7.32695">
        <ele>444.21109</ele>
        <time>2010-06-15T17:01:51Z</time>
      </trkpt>
      <trkpt lat="48.70928" lon="7.3267">
        <ele>445.289215</ele>
        <time>2010-06-15T17:01:56Z</time>
      </trkpt>
      <trkpt lat="48.70935" lon="7.32644">
        <ele>445.39859</ele>
        <time>2010-06-15T17:02:01Z</time>
      </trkpt>
      <trkpt lat="48.70945" lon="7.32621">
        <ele>445.664215</ele>
        <time>2010-06-15T17:02:05Z</time>
      </trkpt>
      <trkpt lat="48.70954" lon="7.32597">
        <ele>445.92984</ele>
        <time>2010-06-15T17:02:11Z</time>
      </trkpt>
      <trkpt lat="48.70964" lon="7.32574">
        <ele>444.625153</ele>
        <time>2010-06-15T17:02:16Z</time>
      </trkpt>
      <trkpt lat="48.70974" lon="7.32551">
        <ele>442.27359</ele>
        <time>2010-06-15T17:02:20Z</time>
      </trkpt>
      <trkpt lat="48.70985" lon="7.32526">
        <ele>439.46109</ele>
        <time>2010-06-15T17:02:27Z</time>
      </trkpt>
      <trkpt lat="48.70995" lon="7.325">
        <ele>438.61734</ele>
        <time>2010-06-15T17:02:34Z</time>
      </trkpt>
      <trkpt lat="48.71007" lon="7.32479">
        <ele>437.562653</ele>
        <time>2010-06-15T17:02:41Z</time>
      </trkpt>
      <trkpt lat="48.71023" lon="7.32461">
        <ele>436.914215</ele>
        <time>2010-06-15T17:02:47Z</time>
      </trkpt>
      <trkpt lat="48.71037" lon="7.32442">
        <ele>435.11734</ele>
        <time>2010-06-15T17:02:53Z</time>
      </trkpt>
      <trkpt lat="48.71043" lon="7.32415">
        <ele>434.33609</ele>
        <time>2010-06-15T17:03:01Z</time>
      </trkpt>
      <trkpt lat="48.71052" lon="7.3239">
        <ele>434.453278</ele>
        <time>2010-06-15T17:03:16Z</time>
      </trkpt>
      <trkpt lat="48.71066" lon="7.32372">
        <ele>433.093903</ele>
        <time>2010-06-15T17:03:24Z</time>
      </trkpt>
      <trkpt lat="48.71081" lon="7.32355">
        <ele>435.547028</ele>
        <time>2010-06-15T17:03:32Z</time>
      </trkpt>
      <trkpt lat="48.71089" lon="7.3233">
        <ele>436.39859</ele>
        <time>2010-06-15T17:03:44Z</time>
      </trkpt>
      <trkpt lat="48.71101" lon="7.32305">
        <ele>433.726715</ele>
        <time>2010-06-15T17:03:55Z</time>
      </trkpt>
      <trkpt lat="48.71109" lon="7.3228">
        <ele>437.21109</ele>
        <time>2010-06-15T17:04:09Z</time>
      </trkpt>
      <trkpt lat="48.71112" lon="7.32251">
        <ele>440.257965</ele>
        <time>2010-06-15T17:04:19Z</time>
      </trkpt>
      <trkpt lat="48.71118" lon="7.32225">
        <ele>440.664215</ele>
        <time>2010-06-15T17:04:30Z</time>
      </trkpt>
      <trkpt lat="48.71128" lon="7.322">
        <ele>438.734528</ele>
        <time>2010-06-15T17:04:39Z</time>
      </trkpt>
      <trkpt lat="48.71138" lon="7.32174">
        <ele>434.562653</ele>
        <time>2010-06-15T17:04:51Z</time>
      </trkpt>
      <trkpt lat="48.71151" lon="7.32156">
        <ele>439.875153</ele>
        <time>2010-06-15T17:04:56Z</time>
      </trkpt>
      <trkpt lat="48.71154" lon="7.32128">
        <ele>442.89859</ele>
        <time>2010-06-15T17:05:10Z</time>
      </trkpt>
      <trkpt lat="48.71138" lon="7.32125">
        <ele>454.890778</ele>
        <time>2010-06-15T17:06:56Z</time>
      </trkpt>
      <trkpt lat="48.71116" lon="7.32127">
        <ele>455.203278</ele>
        <time>2010-06-15T17:07:09Z</time>
      </trkpt>
      <trkpt lat="48.71098" lon="7.32128">
        <ele>456.781403</ele>
        <time>2010-06-15T17:07:21Z</time>
      </trkpt>
      <trkpt lat="48.71081" lon="7.32118">
        <ele>457.77359</ele>
        <time>2010-06-15T17:07:32Z</time>
      </trkpt>
      <trkpt lat="48.71065" lon="7.32108">
        <ele>466.312653</ele>
        <time>2010-06-15T17:09:33Z</time>
      </trkpt>
      <trkpt lat="48.71051" lon="7.32088">
        <ele>469.11734</ele>
        <time>2010-06-15T17:09:46Z</time>
      </trkpt>
      <trkpt lat="48.71038" lon="7.32069">
        <ele>474.922028</ele>
        <time>2010-06-15T17:09:53Z</time>
      </trkpt>
      <trkpt lat="48.71025" lon="7.32046">
        <ele>476.414215</ele>
        <time>2010-06-15T17:10:03Z</time>
      </trkpt>
      <trkpt lat="48.71012" lon="7.32024">
        <ele>476.39859</ele>
        <time>2010-06-15T17:10:12Z</time>
      </trkpt>
      <trkpt lat="48.70996" lon="7.32005">
        <ele>476.593903</ele>
        <time>2010-06-15T17:10:42Z</time>
      </trkpt>
      <trkpt lat="48.70982" lon="7.31983">
        <ele>473.562653</ele>
        <time>2010-06-15T17:10:53Z</time>
      </trkpt>
      <trkpt lat="48.70968" lon="7.31962">
        <ele>475.757965</ele>
        <time>2010-06-15T17:11:00Z</time>
      </trkpt>
      <trkpt lat="48.70959" lon="7.31937">
        <ele>475.695465</ele>
        <time>2010-06-15T17:11:08Z</time>
      </trkpt>
      <trkpt lat="48.70947" lon="7.31915">
        <ele>483.875153</ele>
        <time>2010-06-15T17:11:15Z</time>
      </trkpt>
      <trkpt lat="48.70939" lon="7.31887">
        <ele>486.52359</ele>
        <time>2010-06-15T17:11:23Z</time>
      </trkpt>
      <trkpt lat="48.70931" lon="7.31858">
        <ele>487.46109</ele>
        <time>2010-06-15T17:11:30Z</time>
      </trkpt>
      <trkpt lat="48.70924" lon="7.31831">
        <ele>487.547028</ele>
        <time>2010-06-15T17:11:37Z</time>
      </trkpt>
      <trkpt lat="48.70913" lon="7.31809">
        <ele>485.80484</ele>
        <time>2010-06-15T17:11:43Z</time>
      </trkpt>
      <trkpt lat="48.70899" lon="7.31791">
        <ele>489.21109</ele>
        <time>2010-06-15T17:11:50Z</time>
      </trkpt>
      <trkpt lat="48.70881" lon="7.31791">
        <ele>491.132965</ele>
        <time>2010-06-15T17:12:02Z</time>
      </trkpt>
      <trkpt lat="48.70862" lon="7.31797">
        <ele>492.226715</ele>
        <time>2010-06-15T17:12:17Z</time>
      </trkpt>
      <trkpt lat="48.70844" lon="7.31802">
        <ele>488.52359</ele>
        <time>2010-06-15T17:12:30Z</time>
      </trkpt>
      <trkpt lat="48.70826" lon="7.3181">
        <ele>484.42984</ele>
        <time>2010-06-15T17:12:37Z</time>
      </trkpt>
      <trkpt lat="48.70807" lon="7.31821">
        <ele>480.531403</ele>
        <time>2010-06-15T17:12:44Z</time>
      </trkpt>
      <trkpt lat="48.7079" lon="7.31833">
        <ele>476.687653</ele>
        <time>2010-06-15T17:12:49Z</time>
      </trkpt>
      <trkpt lat="48.70774" lon="7.31848">
        <ele>472.507965</ele>
        <time>2010-06-15T17:12:56Z</time>
      </trkpt>
      <trkpt lat="48.70759" lon="7.31866">
        <ele>466.937653</ele>
        <time>2010-06-15T17:13:05Z</time>
      </trkpt>
      <trkpt lat="48.7075" lon="7.31891">
        <ele>459.74234</ele>
        <time>2010-06-15T17:13:15Z</time>
      </trkpt>
      <trkpt lat="48.7074" lon="7.31912">
        <ele>453.695465</ele>
        <time>2010-06-15T17:13:23Z</time>
      </trkpt>
      <trkpt lat="48.70725" lon="7.31926">
        <ele>447.437653</ele>
        <time>2010-06-15T17:13:31Z</time>
      </trkpt>
      <trkpt lat="48.70711" lon="7.31945">
        <ele>442.382965</ele>
        <time>2010-06-15T17:13:38Z</time>
      </trkpt>
      <trkpt lat="48.70698" lon="7.31965">
        <ele>437.42984</ele>
        <time>2010-06-15T17:13:44Z</time>
      </trkpt>
      <trkpt lat="48.70685" lon="7.31991">
        <ele>435.67984</ele>
        <time>2010-06-15T17:13:49Z</time>
      </trkpt>
      <trkpt lat="48.70674" lon="7.32015">
        <ele>432.828278</ele>
        <time>2010-06-15T17:13:54Z</time>
      </trkpt>
      <trkpt lat="48.7066" lon="7.32035">
        <ele>430.515778</ele>
        <time>2010-06-15T17:14:01Z</time>
      </trkpt>
      <trkpt lat="48.7064" lon="7.32042">
        <ele>431.828278</ele>
        <time>2010-06-15T17:14:06Z</time>
      </trkpt>
      <trkpt lat="48.7062" lon="7.3205">
        <ele>431.375153</ele>
        <time>2010-06-15T17:14:10Z</time>
      </trkpt>
      <trkpt lat="48.70599" lon="7.32058">
        <ele>427.632965</ele>
        <time>2010-06-15T17:14:13Z</time>
      </trkpt>
      <trkpt lat="48.70581" lon="7.32066">
        <ele>425.187653</ele>
        <time>2010-06-15T17:14:16Z</time>
      </trkpt>
      <trkpt lat="48.70559" lon="7.32075">
        <ele>423.687653</ele>
        <time>2010-06-15T17:14:19Z</time>
      </trkpt>
      <trkpt lat="48.70542" lon="7.32088">
        <ele>424.687653</ele>
        <time>2010-06-15T17:14:21Z</time>
      </trkpt>
      <trkpt lat="48.70519" lon="7.32097">
        <ele>423.906403</ele>
        <time>2010-06-15T17:14:24Z</time>
      </trkpt>
      <trkpt lat="48.705" lon="7.32109">
        <ele>422.21109</ele>
        <time>2010-06-15T17:14:27Z</time>
      </trkpt>
      <trkpt lat="48.70479" lon="7.32128">
        <ele>419.718903</ele>
        <time>2010-06-15T17:14:30Z</time>
      </trkpt>
      <trkpt lat="48.70455" lon="7.32139">
        <ele>416.734528</ele>
        <time>2010-06-15T17:14:33Z</time>
      </trkpt>
      <trkpt lat="48.70438" lon="7.32155">
        <ele>414.140778</ele>
        <time>2010-06-15T17:14:36Z</time>
      </trkpt>
      <trkpt lat="48.70421" lon="7.32166">
        <ele>411.570465</ele>
        <time>2010-06-15T17:14:39Z</time>
      </trkpt>
      <trkpt lat="48.704" lon="7.32183">
        <ele>408.953278</ele>
        <time>2010-06-15T17:14:43Z</time>
      </trkpt>
      <trkpt lat="48.70385" lon="7.32202">
        <ele>407.289215</ele>
        <time>2010-06-15T17:14:47Z</time>
      </trkpt>
      <trkpt lat="48.70371" lon="7.32222">
        <ele>407.390778</ele>
        <time>2010-06-15T17:14:52Z</time>
      </trkpt>
      <trkpt lat="48.70353" lon="7.32234">
        <ele>409.953278</ele>
        <time>2010-06-15T17:14:56Z</time>
      </trkpt>
      <trkpt lat="48.70334" lon="7.32239">
        <ele>405.578278</ele>
        <time>2010-06-15T17:15:02Z</time>
      </trkpt>
      <trkpt lat="48.70316" lon="7.32252">
        <ele>410.36734</ele>
        <time>2010-06-15T17:15:17Z</time>
      </trkpt>
      <trkpt lat="48.70298" lon="7.32261">
        <ele>412.562653</ele>
        <time>2010-06-15T17:15:27Z</time>
      </trkpt>
      <trkpt lat="48.70279" lon="7.32268">
        <ele>412.757965</ele>
        <time>2010-06-15T17:15:35Z</time>
      </trkpt>
      <trkpt lat="48.70261" lon="7.32273">
        <ele>409.984528</ele>
        <time>2010-06-15T17:15:43Z</time>
      </trkpt>
      <trkpt lat="48.70242" lon="7.32278">
        <ele>407.875153</ele>
        <time>2010-06-15T17:15:48Z</time>
      </trkpt>
      <trkpt lat="48.70223" lon="7.3228">
        <ele>404.851715</ele>
        <time>2010-06-15T17:15:54Z</time>
      </trkpt>
      <trkpt lat="48.70205" lon="7.32291">
        <ele>403.828278</ele>
        <time>2010-06-15T17:16:28Z</time>
      </trkpt>
      <trkpt lat="48.70186" lon="7.32303">
        <ele>406.74234</ele>
        <time>2010-06-15T17:16:33Z</time>
      </trkpt>
      <trkpt lat="48.70169" lon="7.32316">
        <ele>412.11734</ele>
        <time>2010-06-15T17:16:37Z</time>
      </trkpt>
      <trkpt lat="48.70151" lon="7.3233">
        <ele>413.52359</ele>
        <time>2010-06-15T17:16:41Z</time>
      </trkpt>
      <trkpt lat="48.70135" lon="7.32348">
        <ele>413.000153</ele>
        <time>2010-06-15T17:16:45Z</time>
      </trkpt>
      <trkpt lat="48.70119" lon="7.32363">
        <ele>409.39859</ele>
        <time>2010-06-15T17:16:49Z</time>
      </trkpt>
      <trkpt lat="48.70102" lon="7.32375">
        <ele>406.61734</ele>
        <time>2010-06-15T17:16:53Z</time>
      </trkpt>
      <trkpt lat="48.70085" lon="7.32387">
        <ele>406.695465</ele>
        <time>2010-06-15T17:16:57Z</time>
      </trkpt>
      <trkpt lat="48.70067" lon="7.324">
        <ele>404.000153</ele>
        <time>2010-06-15T17:17:01Z</time>
      </trkpt>
      <trkpt lat="48.70047" lon="7.32408">
        <ele>404.953278</ele>
        <time>2010-06-15T17:17:04Z</time>
      </trkpt>
      <trkpt lat="48.70032" lon="7.32423">
        <ele>405.601715</ele>
        <time>2010-06-15T17:17:07Z</time>
      </trkpt>
      <trkpt lat="48.70013" lon="7.3244">
        <ele>404.351715</ele>
        <time>2010-06-15T17:17:11Z</time>
      </trkpt>
      <trkpt lat="48.69992" lon="7.3246">
        <ele>401.093903</ele>
        <time>2010-06-15T17:17:15Z</time>
      </trkpt>
      <trkpt lat="48.69975" lon="7.32482">
        <ele>402.140778</ele>
        <time>2010-06-15T17:17:19Z</time>
      </trkpt>
      <trkpt lat="48.69958" lon="7.32502">
        <ele>398.281403</ele>
        <time>2010-06-15T17:17:23Z</time>
      </trkpt>
      <trkpt lat="48.69938" lon="7.32518">
        <ele>393.437653</ele>
        <time>2010-06-15T17:17:27Z</time>
      </trkpt>
      <trkpt lat="48.69923" lon="7.32536">
        <ele>390.67984</ele>
        <time>2010-06-15T17:17:30Z</time>
      </trkpt>
      <trkpt lat="48.69907" lon="7.32554">
        <ele>387.765778</ele>
        <time>2010-06-15T17:17:33Z</time>
      </trkpt>
      <trkpt lat="48.69891" lon="7.32576">
        <ele>384.234528</ele>
        <time>2010-06-15T17:17:36Z</time>
      </trkpt>
      <trkpt lat="48.69872" lon="7.32595">
        <ele>384.17984</ele>
        <time>2010-06-15T17:17:39Z</time>
      </trkpt>
      <trkpt lat="48.69856" lon="7.32611">
        <ele>384.875153</ele>
        <time>2010-06-15T17:17:42Z</time>
      </trkpt>
      <trkpt lat="48.69839" lon="7.32625">
        <ele>384.297028</ele>
        <time>2010-06-15T17:17:45Z</time>
      </trkpt>
      <trkpt lat="48.69815" lon="7.32635">
        <ele>388.351715</ele>
        <time>2010-06-15T17:17:48Z</time>
      </trkpt>
      <trkpt lat="48.69796" lon="7.32648">
        <ele>389.320465</ele>
        <time>2010-06-15T17:17:52Z</time>
      </trkpt>
      <trkpt lat="48.69778" lon="7.32655">
        <ele>390.77359</ele>
        <time>2010-06-15T17:17:57Z</time>
      </trkpt>
      <trkpt lat="48.69758" lon="7.32662">
        <ele>389.734528</ele>
        <time>2010-06-15T17:18:03Z</time>
      </trkpt>
      <trkpt lat="48.69736" lon="7.32661">
        <ele>388.601715</ele>
        <time>2010-06-15T17:18:09Z</time>
      </trkpt>
      <trkpt lat="48.69717" lon="7.32656">
        <ele>386.437653</ele>
        <time>2010-06-15T17:18:14Z</time>
      </trkpt>
      <trkpt lat="48.69698" lon="7.32659">
        <ele>386.96109</ele>
        <time>2010-06-15T17:18:19Z</time>
      </trkpt>
      <trkpt lat="48.69678" lon="7.32656">
        <ele>386.601715</ele>
        <time>2010-06-15T17:18:25Z</time>
      </trkpt>
      <trkpt lat="48.69659" lon="7.32649">
        <ele>386.718903</ele>
        <time>2010-06-15T17:18:32Z</time>
      </trkpt>
      <trkpt lat="48.69641" lon="7.32641">
        <ele>387.125153</ele>
        <time>2010-06-15T17:18:39Z</time>
      </trkpt>
      <trkpt lat="48.69658" lon="7.32647">
        <ele>385.781403</ele>
        <time>2010-06-15T17:18:52Z</time>
      </trkpt>
      <trkpt lat="48.69672" lon="7.32673">
        <ele>388.52359</ele>
        <time>2010-06-15T17:18:57Z</time>
      </trkpt>
      <trkpt lat="48.69675" lon="7.32702">
        <ele>389.015778</ele>
        <time>2010-06-15T17:19:01Z</time>
      </trkpt>
      <trkpt lat="48.6968" lon="7.32733">
        <ele>389.984528</ele>
        <time>2010-06-15T17:19:05Z</time>
      </trkpt>
      <trkpt lat="48.69689" lon="7.32763">
        <ele>391.187653</ele>
        <time>2010-06-15T17:19:09Z</time>
      </trkpt>
      <trkpt lat="48.697" lon="7.32788">
        <ele>391.828278</ele>
        <time>2010-06-15T17:19:13Z</time>
      </trkpt>
      <trkpt lat="48.69712" lon="7.32813">
        <ele>391.601715</ele>
        <time>2010-06-15T17:19:17Z</time>
      </trkpt>
      <trkpt lat="48.69725" lon="7.32836">
        <ele>392.914215</ele>
        <time>2010-06-15T17:19:21Z</time>
      </trkpt>
      <trkpt lat="48.6974" lon="7.32858">
        <ele>393.125153</ele>
        <time>2010-06-15T17:19:25Z</time>
      </trkpt>
      <trkpt lat="48.69755" lon="7.3288">
        <ele>395.351715</ele>
        <time>2010-06-15T17:19:29Z</time>
      </trkpt>
      <trkpt lat="48.6977" lon="7.32903">
        <ele>397.539215</ele>
        <time>2010-06-15T17:19:33Z</time>
      </trkpt>
      <trkpt lat="48.69783" lon="7.32923">
        <ele>401.187653</ele>
        <time>2010-06-15T17:19:37Z</time>
      </trkpt>
      <trkpt lat="48.69797" lon="7.32942">
        <ele>404.906403</ele>
        <time>2010-06-15T17:19:41Z</time>
      </trkpt>
      <trkpt lat="48.69812" lon="7.32959">
        <ele>406.257965</ele>
        <time>2010-06-15T17:19:45Z</time>
      </trkpt>
      <trkpt lat="48.69828" lon="7.32981">
        <ele>411.531403</ele>
        <time>2010-06-15T17:19:50Z</time>
      </trkpt>
      <trkpt lat="48.69844" lon="7.32998">
        <ele>415.937653</ele>
        <time>2010-06-15T17:19:55Z</time>
      </trkpt>
      <trkpt lat="48.69861" lon="7.3301">
        <ele>418.851715</ele>
        <time>2010-06-15T17:19:59Z</time>
      </trkpt>
      <trkpt lat="48.69879" lon="7.33016">
        <ele>416.601715</ele>
        <time>2010-06-15T17:20:03Z</time>
      </trkpt>
      <trkpt lat="48.69899" lon="7.33019">
        <ele>411.953278</ele>
        <time>2010-06-15T17:20:08Z</time>
      </trkpt>
      <trkpt lat="48.69919" lon="7.33019">
        <ele>411.257965</ele>
        <time>2010-06-15T17:20:13Z</time>
      </trkpt>
      <trkpt lat="48.6994" lon="7.33019">
        <ele>409.875153</ele>
        <time>2010-06-15T17:20:18Z</time>
      </trkpt>
      <trkpt lat="48.69961" lon="7.33022">
        <ele>407.750153</ele>
        <time>2010-06-15T17:20:22Z</time>
      </trkpt>
      <trkpt lat="48.69982" lon="7.33028">
        <ele>418.234528</ele>
        <time>2010-06-15T17:20:27Z</time>
      </trkpt>
      <trkpt lat="48.7" lon="7.33026">
        <ele>415.484528</ele>
        <time>2010-06-15T17:20:31Z</time>
      </trkpt>
      <trkpt lat="48.70021" lon="7.3302">
        <ele>412.468903</ele>
        <time>2010-06-15T17:20:36Z</time>
      </trkpt>
      <trkpt lat="48.70041" lon="7.33012">
        <ele>408.078278</ele>
        <time>2010-06-15T17:20:41Z</time>
      </trkpt>
      <trkpt lat="48.7006" lon="7.33003">
        <ele>412.77359</ele>
        <time>2010-06-15T17:20:47Z</time>
      </trkpt>
      <trkpt lat="48.70077" lon="7.32993">
        <ele>412.164215</ele>
        <time>2010-06-15T17:20:52Z</time>
      </trkpt>
      <trkpt lat="48.70096" lon="7.3299">
        <ele>413.382965</ele>
        <time>2010-06-15T17:20:57Z</time>
      </trkpt>
      <trkpt lat="48.70113" lon="7.32992">
        <ele>419.64859</ele>
        <time>2010-06-15T17:21:01Z</time>
      </trkpt>
      <trkpt lat="48.70132" lon="7.32991">
        <ele>416.172028</ele>
        <time>2010-06-15T17:21:05Z</time>
      </trkpt>
      <trkpt lat="48.70153" lon="7.32986">
        <ele>418.27359</ele>
        <time>2010-06-15T17:21:11Z</time>
      </trkpt>
      <trkpt lat="48.70173" lon="7.32979">
        <ele>416.375153</ele>
        <time>2010-06-15T17:21:17Z</time>
      </trkpt>
      <trkpt lat="48.70191" lon="7.32978">
        <ele>415.36734</ele>
        <time>2010-06-15T17:21:21Z</time>
      </trkpt>
      <trkpt lat="48.7021" lon="7.32973">
        <ele>416.695465</ele>
        <time>2010-06-15T17:21:26Z</time>
      </trkpt>
      <trkpt lat="48.70231" lon="7.32969">
        <ele>417.46109</ele>
        <time>2010-06-15T17:21:31Z</time>
      </trkpt>
      <trkpt lat="48.7025" lon="7.32968">
        <ele>414.000153</ele>
        <time>2010-06-15T17:21:35Z</time>
      </trkpt>
      <trkpt lat="48.70268" lon="7.32963">
        <ele>415.39859</ele>
        <time>2010-06-15T17:21:40Z</time>
      </trkpt>
      <trkpt lat="48.70287" lon="7.32963">
        <ele>420.562653</ele>
        <time>2010-06-15T17:21:45Z</time>
      </trkpt>
      <trkpt lat="48.70305" lon="7.3296">
        <ele>424.484528</ele>
        <time>2010-06-15T17:21:50Z</time>
      </trkpt>
      <trkpt lat="48.70324" lon="7.32963">
        <ele>426.21109</ele>
        <time>2010-06-15T17:21:54Z</time>
      </trkpt>
      <trkpt lat="48.70343" lon="7.32968">
        <ele>434.539215</ele>
        <time>2010-06-15T17:22:00Z</time>
      </trkpt>
      <trkpt lat="48.70363" lon="7.32972">
        <ele>430.570465</ele>
        <time>2010-06-15T17:22:04Z</time>
      </trkpt>
      <trkpt lat="48.70383" lon="7.32976">
        <ele>433.359528</ele>
        <time>2010-06-15T17:22:09Z</time>
      </trkpt>
      <trkpt lat="48.70403" lon="7.3298">
        <ele>438.27359</ele>
        <time>2010-06-15T17:22:14Z</time>
      </trkpt>
      <trkpt lat="48.70421" lon="7.32989">
        <ele>444.453278</ele>
        <time>2010-06-15T17:22:19Z</time>
      </trkpt>
      <trkpt lat="48.7044" lon="7.32993">
        <ele>441.17984</ele>
        <time>2010-06-15T17:22:23Z</time>
      </trkpt>
      <trkpt lat="48.7046" lon="7.32998">
        <ele>437.578278</ele>
        <time>2010-06-15T17:22:27Z</time>
      </trkpt>
      <trkpt lat="48.70478" lon="7.33003">
        <ele>436.52359</ele>
        <time>2010-06-15T17:22:32Z</time>
      </trkpt>
      <trkpt lat="48.70499" lon="7.33011">
        <ele>440.687653</ele>
        <time>2010-06-15T17:22:38Z</time>
      </trkpt>
      <trkpt lat="48.70519" lon="7.33024">
        <ele>446.890778</ele>
        <time>2010-06-15T17:22:44Z</time>
      </trkpt>
      <trkpt lat="48.70539" lon="7.33026">
        <ele>449.17984</ele>
        <time>2010-06-15T17:22:49Z</time>
      </trkpt>
      <trkpt lat="48.70559" lon="7.33034">
        <ele>447.859528</ele>
        <time>2010-06-15T17:22:53Z</time>
      </trkpt>
      <trkpt lat="48.7058" lon="7.3304">
        <ele>445.132965</ele>
        <time>2010-06-15T17:22:57Z</time>
      </trkpt>
      <trkpt lat="48.70601" lon="7.33043">
        <ele>437.062653</ele>
        <time>2010-06-15T17:23:01Z</time>
      </trkpt>
      <trkpt lat="48.7062" lon="7.33042">
        <ele>430.92984</ele>
        <time>2010-06-15T17:23:05Z</time>
      </trkpt>
      <trkpt lat="48.7064" lon="7.33046">
        <ele>429.797028</ele>
        <time>2010-06-15T17:23:10Z</time>
      </trkpt>
      <trkpt lat="48.7066" lon="7.33057">
        <ele>431.039215</ele>
        <time>2010-06-15T17:23:15Z</time>
      </trkpt>
      <trkpt lat="48.70678" lon="7.33074">
        <ele>431.039215</ele>
        <time>2010-06-15T17:23:20Z</time>
      </trkpt>
      <trkpt lat="48.70694" lon="7.33093">
        <ele>429.125153</ele>
        <time>2010-06-15T17:23:25Z</time>
      </trkpt>
      <trkpt lat="48.7071" lon="7.33114">
        <ele>427.58609</ele>
        <time>2010-06-15T17:23:30Z</time>
      </trkpt>
      <trkpt lat="48.70725" lon="7.33133">
        <ele>429.664215</ele>
        <time>2010-06-15T17:23:35Z</time>
      </trkpt>
      <trkpt lat="48.70741" lon="7.33147">
        <ele>429.601715</ele>
        <time>2010-06-15T17:23:40Z</time>
      </trkpt>
      <trkpt lat="48.70759" lon="7.33162">
        <ele>432.914215</ele>
        <time>2010-06-15T17:23:45Z</time>
      </trkpt>
      <trkpt lat="48.70778" lon="7.33177">
        <ele>433.89859</ele>
        <time>2010-06-15T17:23:50Z</time>
      </trkpt>
      <trkpt lat="48.70795" lon="7.33192">
        <ele>436.05484</ele>
        <time>2010-06-15T17:23:55Z</time>
      </trkpt>
      <trkpt lat="48.70813" lon="7.33205">
        <ele>438.203278</ele>
        <time>2010-06-15T17:24:00Z</time>
      </trkpt>
      <trkpt lat="48.70832" lon="7.33216">
        <ele>437.672028</ele>
        <time>2010-06-15T17:24:05Z</time>
      </trkpt>
      <trkpt lat="48.70853" lon="7.33224">
        <ele>436.77359</ele>
        <time>2010-06-15T17:24:10Z</time>
      </trkpt>
      <trkpt lat="48.70874" lon="7.33231">
        <ele>437.445465</ele>
        <time>2010-06-15T17:24:15Z</time>
      </trkpt>
      <trkpt lat="48.70898" lon="7.33231">
        <ele>429.953278</ele>
        <time>2010-06-15T17:24:20Z</time>
      </trkpt>
      <trkpt lat="48.70916" lon="7.3323">
        <ele>422.281403</ele>
        <time>2010-06-15T17:24:24Z</time>
      </trkpt>
      <trkpt lat="48.70934" lon="7.33241">
        <ele>427.539215</ele>
        <time>2010-06-15T17:24:29Z</time>
      </trkpt>
      <trkpt lat="48.70954" lon="7.3325">
        <ele>432.070465</ele>
        <time>2010-06-15T17:24:34Z</time>
      </trkpt>
      <trkpt lat="48.70976" lon="7.33256">
        <ele>433.437653</ele>
        <time>2010-06-15T17:24:38Z</time>
      </trkpt>
      <trkpt lat="48.70995" lon="7.33255">
        <ele>430.906403</ele>
        <time>2010-06-15T17:24:42Z</time>
      </trkpt>
      <trkpt lat="48.71016" lon="7.33254">
        <ele>432.312653</ele>
        <time>2010-06-15T17:24:47Z</time>
      </trkpt>
      <trkpt lat="48.71034" lon="7.3325">
        <ele>432.765778</ele>
        <time>2010-06-15T17:24:51Z</time>
      </trkpt>
      <trkpt lat="48.71055" lon="7.33243">
        <ele>436.968903</ele>
        <time>2010-06-15T17:24:56Z</time>
      </trkpt>
      <trkpt lat="48.71075" lon="7.33227">
        <ele>440.312653</ele>
        <time>2010-06-15T17:25:01Z</time>
      </trkpt>
      <trkpt lat="48.71092" lon="7.33213">
        <ele>441.507965</ele>
        <time>2010-06-15T17:25:04Z</time>
      </trkpt>
      <trkpt lat="48.71108" lon="7.332">
        <ele>442.656403</ele>
        <time>2010-06-15T17:25:08Z</time>
      </trkpt>
      <trkpt lat="48.71127" lon="7.33185">
        <ele>443.047028</ele>
        <time>2010-06-15T17:25:13Z</time>
      </trkpt>
      <trkpt lat="48.71145" lon="7.33171">
        <ele>439.74234</ele>
        <time>2010-06-15T17:25:17Z</time>
      </trkpt>
      <trkpt lat="48.71166" lon="7.33167">
        <ele>435.02359</ele>
        <time>2010-06-15T17:25:21Z</time>
      </trkpt>
      <trkpt lat="48.71184" lon="7.33167">
        <ele>431.445465</ele>
        <time>2010-06-15T17:25:26Z</time>
      </trkpt>
      <trkpt lat="48.71201" lon="7.33159">
        <ele>432.92984</ele>
        <time>2010-06-15T17:25:32Z</time>
      </trkpt>
      <trkpt lat="48.7122" lon="7.33152">
        <ele>437.000153</ele>
        <time>2010-06-15T17:25:40Z</time>
      </trkpt>
      <trkpt lat="48.71235" lon="7.33133">
        <ele>439.000153</ele>
        <time>2010-06-15T17:25:46Z</time>
      </trkpt>
      <trkpt lat="48.71252" lon="7.33124">
        <ele>442.140778</ele>
        <time>2010-06-15T17:25:55Z</time>
      </trkpt>
      <trkpt lat="48.71271" lon="7.33126">
        <ele>440.968903</ele>
        <time>2010-06-15T17:26:02Z</time>
      </trkpt>
      <trkpt lat="48.71288" lon="7.33141">
        <ele>440.08609</ele>
        <time>2010-06-15T17:26:08Z</time>
      </trkpt>
      <trkpt lat="48.71307" lon="7.33143">
        <ele>441.61734</ele>
        <time>2010-06-15T17:26:16Z</time>
      </trkpt>
      <trkpt lat="48.71325" lon="7.33136">
        <ele>440.484528</ele>
        <time>2010-06-15T17:26:24Z</time>
      </trkpt>
      <trkpt lat="48.71344" lon="7.33127">
        <ele>441.24234</ele>
        <time>2010-06-15T17:26:30Z</time>
      </trkpt>
      <trkpt lat="48.71363" lon="7.33122">
        <ele>440.484528</ele>
        <time>2010-06-15T17:26:35Z</time>
      </trkpt>
      <trkpt lat="48.71382" lon="7.33111">
        <ele>439.882965</ele>
        <time>2010-06-15T17:26:42Z</time>
      </trkpt>
      <trkpt lat="48.71403" lon="7.33109">
        <ele>443.664215</ele>
        <time>2010-06-15T17:26:52Z</time>
      </trkpt>
      <trkpt lat="48.71423" lon="7.33107">
        <ele>443.80484</ele>
        <time>2010-06-15T17:26:58Z</time>
      </trkpt>
      <trkpt lat="48.71442" lon="7.33109">
        <ele>444.547028</ele>
        <time>2010-06-15T17:27:05Z</time>
      </trkpt>
      <trkpt lat="48.71463" lon="7.33109">
        <ele>447.36734</ele>
        <time>2010-06-15T17:27:12Z</time>
      </trkpt>
      <trkpt lat="48.71486" lon="7.33111">
        <ele>448.726715</ele>
        <time>2010-06-15T17:27:18Z</time>
      </trkpt>
      <trkpt lat="48.71504" lon="7.33115">
        <ele>446.093903</ele>
        <time>2010-06-15T17:27:22Z</time>
      </trkpt>
      <trkpt lat="48.71525" lon="7.33121">
        <ele>443.015778</ele>
        <time>2010-06-15T17:27:26Z</time>
      </trkpt>
      <trkpt lat="48.71544" lon="7.33133">
        <ele>445.820465</ele>
        <time>2010-06-15T17:27:31Z</time>
      </trkpt>
      <trkpt lat="48.71564" lon="7.33144">
        <ele>443.468903</ele>
        <time>2010-06-15T17:27:37Z</time>
      </trkpt>
      <trkpt lat="48.71583" lon="7.33151">
        <ele>443.015778</ele>
        <time>2010-06-15T17:27:41Z</time>
      </trkpt>
      <trkpt lat="48.71602" lon="7.33163">
        <ele>439.52359</ele>
        <time>2010-06-15T17:27:45Z</time>
      </trkpt>
      <trkpt lat="48.71619" lon="7.33173">
        <ele>437.77359</ele>
        <time>2010-06-15T17:27:49Z</time>
      </trkpt>
      <trkpt lat="48.71636" lon="7.33189">
        <ele>437.500153</ele>
        <time>2010-06-15T17:27:53Z</time>
      </trkpt>
      <trkpt lat="48.7165" lon="7.33211">
        <ele>437.476715</ele>
        <time>2010-06-15T17:27:57Z</time>
      </trkpt>
      <trkpt lat="48.71668" lon="7.33226">
        <ele>440.703278</ele>
        <time>2010-06-15T17:28:03Z</time>
      </trkpt>
      <trkpt lat="48.71688" lon="7.33227">
        <ele>444.906403</ele>
        <time>2010-06-15T17:28:09Z</time>
      </trkpt>
      <trkpt lat="48.71706" lon="7.33237">
        <ele>442.17984</ele>
        <time>2010-06-15T17:28:22Z</time>
      </trkpt>
      <trkpt lat="48.71723" lon="7.33247">
        <ele>443.976715</ele>
        <time>2010-06-15T17:28:28Z</time>
      </trkpt>
      <trkpt lat="48.71737" lon="7.33266">
        <ele>449.601715</ele>
        <time>2010-06-15T17:28:45Z</time>
      </trkpt>
      <trkpt lat="48.71753" lon="7.33285">
        <ele>452.52359</ele>
        <time>2010-06-15T17:28:51Z</time>
      </trkpt>
      <trkpt lat="48.71771" lon="7.33303">
        <ele>457.312653</ele>
        <time>2010-06-15T17:28:58Z</time>
      </trkpt>
      <trkpt lat="48.71788" lon="7.33318">
        <ele>459.77359</ele>
        <time>2010-06-15T17:29:03Z</time>
      </trkpt>
      <trkpt lat="48.71802" lon="7.33337">
        <ele>461.203278</ele>
        <time>2010-06-15T17:29:07Z</time>
      </trkpt>
      <trkpt lat="48.71816" lon="7.33353">
        <ele>466.30484</ele>
        <time>2010-06-15T17:29:12Z</time>
      </trkpt>
      <trkpt lat="48.71832" lon="7.3337">
        <ele>472.14859</ele>
        <time>2010-06-15T17:29:17Z</time>
      </trkpt>
      <trkpt lat="48.71847" lon="7.33388">
        <ele>475.093903</ele>
        <time>2010-06-15T17:29:21Z</time>
      </trkpt>
      <trkpt lat="48.71867" lon="7.33398">
        <ele>468.922028</ele>
        <time>2010-06-15T17:29:25Z</time>
      </trkpt>
      <trkpt lat="48.71886" lon="7.33407">
        <ele>467.42984</ele>
        <time>2010-06-15T17:29:30Z</time>
      </trkpt>
      <trkpt lat="48.71906" lon="7.33412">
        <ele>468.92984</ele>
        <time>2010-06-15T17:29:37Z</time>
      </trkpt>
      <trkpt lat="48.71923" lon="7.33421">
        <ele>469.609528</ele>
        <time>2010-06-15T17:29:44Z</time>
      </trkpt>
      <trkpt lat="48.71941" lon="7.33427">
        <ele>468.976715</ele>
        <time>2010-06-15T17:29:51Z</time>
      </trkpt>
      <trkpt lat="48.71959" lon="7.33422">
        <ele>456.843903</ele>
        <time>2010-06-15T17:29:55Z</time>
      </trkpt>
      <trkpt lat="48.71976" lon="7.33418">
        <ele>451.664215</ele>
        <time>2010-06-15T17:30:00Z</time>
      </trkpt>
      <trkpt lat="48.71994" lon="7.33428">
        <ele>443.703278</ele>
        <time>2010-06-15T17:30:05Z</time>
      </trkpt>
      <trkpt lat="48.72012" lon="7.33438">
        <ele>441.49234</ele>
        <time>2010-06-15T17:30:10Z</time>
      </trkpt>
      <trkpt lat="48.72027" lon="7.33459">
        <ele>440.77359</ele>
        <time>2010-06-15T17:30:15Z</time>
      </trkpt>
      <trkpt lat="48.72043" lon="7.33482">
        <ele>440.007965</ele>
        <time>2010-06-15T17:30:21Z</time>
      </trkpt>
      <trkpt lat="48.72059" lon="7.335">
        <ele>438.203278</ele>
        <time>2010-06-15T17:30:27Z</time>
      </trkpt>
      <trkpt lat="48.72079" lon="7.33504">
        <ele>435.99234</ele>
        <time>2010-06-15T17:30:33Z</time>
      </trkpt>
      <trkpt lat="48.72098" lon="7.3351">
        <ele>433.101715</ele>
        <time>2010-06-15T17:30:38Z</time>
      </trkpt>
      <trkpt lat="48.72114" lon="7.33526">
        <ele>432.05484</ele>
        <time>2010-06-15T17:30:45Z</time>
      </trkpt>
      <trkpt lat="48.72129" lon="7.33546">
        <ele>430.656403</ele>
        <time>2010-06-15T17:30:50Z</time>
      </trkpt>
      <trkpt lat="48.72143" lon="7.33565">
        <ele>429.703278</ele>
        <time>2010-06-15T17:30:54Z</time>
      </trkpt>
      <trkpt lat="48.72163" lon="7.33576">
        <ele>427.375153</ele>
        <time>2010-06-15T17:30:58Z</time>
      </trkpt>
      <trkpt lat="48.72181" lon="7.33592">
        <ele>427.99234</ele>
        <time>2010-06-15T17:31:04Z</time>
      </trkpt>
      <trkpt lat="48.72198" lon="7.33601">
        <ele>433.937653</ele>
        <time>2010-06-15T17:31:10Z</time>
      </trkpt>
      <trkpt lat="48.72218" lon="7.33605">
        <ele>433.578278</ele>
        <time>2010-06-15T17:31:17Z</time>
      </trkpt>
      <trkpt lat="48.72237" lon="7.3361">
        <ele>440.343903</ele>
        <time>2010-06-15T17:31:27Z</time>
      </trkpt>
      <trkpt lat="48.72253" lon="7.3362">
        <ele>443.320465</ele>
        <time>2010-06-15T17:31:38Z</time>
      </trkpt>
      <trkpt lat="48.72266" lon="7.3364">
        <ele>447.937653</ele>
        <time>2010-06-15T17:31:51Z</time>
      </trkpt>
      <trkpt lat="48.72285" lon="7.33645">
        <ele>444.656403</ele>
        <time>2010-06-15T17:32:01Z</time>
      </trkpt>
      <trkpt lat="48.72303" lon="7.33653">
        <ele>444.859528</ele>
        <time>2010-06-15T17:32:07Z</time>
      </trkpt>
      <trkpt lat="48.7232" lon="7.33671">
        <ele>442.33609</ele>
        <time>2010-06-15T17:32:13Z</time>
      </trkpt>
      <trkpt lat="48.72335" lon="7.33687">
        <ele>442.015778</ele>
        <time>2010-06-15T17:32:21Z</time>
      </trkpt>
      <trkpt lat="48.72347" lon="7.33708">
        <ele>439.96109</ele>
        <time>2010-06-15T17:32:26Z</time>
      </trkpt>
      <trkpt lat="48.72363" lon="7.33691">
        <ele>439.976715</ele>
        <time>2010-06-15T17:32:33Z</time>
      </trkpt>
      <trkpt lat="48.72376" lon="7.33671">
        <ele>437.562653</ele>
        <time>2010-06-15T17:32:40Z</time>
      </trkpt>
      <trkpt lat="48.72395" lon="7.33671">
        <ele>435.890778</ele>
        <time>2010-06-15T17:32:46Z</time>
      </trkpt>
      <trkpt lat="48.72414" lon="7.33679">
        <ele>433.218903</ele>
        <time>2010-06-15T17:32:50Z</time>
      </trkpt>
      <trkpt lat="48.72435" lon="7.33688">
        <ele>430.99234</ele>
        <time>2010-06-15T17:32:57Z</time>
      </trkpt>
      <trkpt lat="48.72455" lon="7.33701">
        <ele>429.96109</ele>
        <time>2010-06-15T17:33:02Z</time>
      </trkpt>
      <trkpt lat="48.72473" lon="7.3372">
        <ele>427.539215</ele>
        <time>2010-06-15T17:33:06Z</time>
      </trkpt>
      <trkpt lat="48.7249" lon="7.33731">
        <ele>428.80484</ele>
        <time>2010-06-15T17:33:09Z</time>
      </trkpt>
      <trkpt lat="48.72505" lon="7.33753">
        <ele>428.67984</ele>
        <time>2010-06-15T17:33:14Z</time>
      </trkpt>
      <trkpt lat="48.72523" lon="7.33763">
        <ele>427.828278</ele>
        <time>2010-06-15T17:33:22Z</time>
      </trkpt>
      <trkpt lat="48.7254" lon="7.33783">
        <ele>428.031403</ele>
        <time>2010-06-15T17:33:28Z</time>
      </trkpt>
      <trkpt lat="48.72555" lon="7.33803">
        <ele>429.172028</ele>
        <time>2010-06-15T17:33:32Z</time>
      </trkpt>
      <trkpt lat="48.72572" lon="7.3382">
        <ele>430.359528</ele>
        <time>2010-06-15T17:33:35Z</time>
      </trkpt>
      <trkpt lat="48.7259" lon="7.33839">
        <ele>431.257965</ele>
        <time>2010-06-15T17:33:38Z</time>
      </trkpt>
      <trkpt lat="48.72609" lon="7.33863">
        <ele>432.437653</ele>
        <time>2010-06-15T17:33:41Z</time>
      </trkpt>
      <trkpt lat="48.72623" lon="7.33893">
        <ele>432.601715</ele>
        <time>2010-06-15T17:33:44Z</time>
      </trkpt>
      <trkpt lat="48.72632" lon="7.33922">
        <ele>433.203278</ele>
        <time>2010-06-15T17:33:48Z</time>
      </trkpt>
      <trkpt lat="48.72647" lon="7.33939">
        <ele>432.547028</ele>
        <time>2010-06-15T17:33:52Z</time>
      </trkpt>
      <trkpt lat="48.72662" lon="7.33958">
        <ele>427.562653</ele>
        <time>2010-06-15T17:33:57Z</time>
      </trkpt>
      <trkpt lat="48.72675" lon="7.33974">
        <ele>417.320465</ele>
        <time>2010-06-15T17:34:04Z</time>
      </trkpt>
      <trkpt lat="48.72688" lon="7.33996">
        <ele>412.789215</ele>
        <time>2010-06-15T17:34:08Z</time>
      </trkpt>
      <trkpt lat="48.72693" lon="7.34022">
        <ele>409.281403</ele>
        <time>2010-06-15T17:34:11Z</time>
      </trkpt>
      <trkpt lat="48.72705" lon="7.34053">
        <ele>405.61734</ele>
        <time>2010-06-15T17:34:15Z</time>
      </trkpt>
      <trkpt lat="48.72717" lon="7.34079">
        <ele>401.922028</ele>
        <time>2010-06-15T17:34:18Z</time>
      </trkpt>
      <trkpt lat="48.7273" lon="7.34109">
        <ele>397.718903</ele>
        <time>2010-06-15T17:34:22Z</time>
      </trkpt>
      <trkpt lat="48.72744" lon="7.34136">
        <ele>392.164215</ele>
        <time>2010-06-15T17:34:26Z</time>
      </trkpt>
      <trkpt lat="48.7276" lon="7.34152">
        <ele>386.656403</ele>
        <time>2010-06-15T17:34:31Z</time>
      </trkpt>
      <trkpt lat="48.72774" lon="7.34175">
        <ele>381.664215</ele>
        <time>2010-06-15T17:34:37Z</time>
      </trkpt>
      <trkpt lat="48.72791" lon="7.34193">
        <ele>379.750153</ele>
        <time>2010-06-15T17:34:42Z</time>
      </trkpt>
      <trkpt lat="48.72803" lon="7.34213">
        <ele>374.390778</ele>
        <time>2010-06-15T17:34:47Z</time>
      </trkpt>
      <trkpt lat="48.72818" lon="7.34232">
        <ele>371.672028</ele>
        <time>2010-06-15T17:34:51Z</time>
      </trkpt>
      <trkpt lat="48.72834" lon="7.34251">
        <ele>367.953278</ele>
        <time>2010-06-15T17:34:56Z</time>
      </trkpt>
      <trkpt lat="48.72847" lon="7.34274">
        <ele>363.08609</ele>
        <time>2010-06-15T17:35:02Z</time>
      </trkpt>
      <trkpt lat="48.72865" lon="7.34282">
        <ele>361.289215</ele>
        <time>2010-06-15T17:35:07Z</time>
      </trkpt>
      <trkpt lat="48.7288" lon="7.34303">
        <ele>358.000153</ele>
        <time>2010-06-15T17:35:11Z</time>
      </trkpt>
      <trkpt lat="48.72897" lon="7.34313">
        <ele>356.547028</ele>
        <time>2010-06-15T17:35:15Z</time>
      </trkpt>
      <trkpt lat="48.72915" lon="7.3433">
        <ele>355.250153</ele>
        <time>2010-06-15T17:35:20Z</time>
      </trkpt>
      <trkpt lat="48.72934" lon="7.34348">
        <ele>353.906403</ele>
        <time>2010-06-15T17:35:24Z</time>
      </trkpt>
      <trkpt lat="48.72953" lon="7.34355">
        <ele>350.859528</ele>
        <time>2010-06-15T17:35:29Z</time>
      </trkpt>
      <trkpt lat="48.7297" lon="7.34363">
        <ele>346.187653</ele>
        <time>2010-06-15T17:35:35Z</time>
      </trkpt>
      <trkpt lat="48.72989" lon="7.34376">
        <ele>344.070465</ele>
        <time>2010-06-15T17:35:41Z</time>
      </trkpt>
      <trkpt lat="48.73005" lon="7.34391">
        <ele>342.984528</ele>
        <time>2010-06-15T17:35:44Z</time>
      </trkpt>
      <trkpt lat="48.73019" lon="7.3441">
        <ele>340.953278</ele>
        <time>2010-06-15T17:35:47Z</time>
      </trkpt>
      <trkpt lat="48.73039" lon="7.3443">
        <ele>339.078278</ele>
        <time>2010-06-15T17:35:50Z</time>
      </trkpt>
      <trkpt lat="48.73054" lon="7.34447">
        <ele>337.101715</ele>
        <time>2010-06-15T17:35:53Z</time>
      </trkpt>
      <trkpt lat="48.73068" lon="7.34467">
        <ele>334.164215</ele>
        <time>2010-06-15T17:35:58Z</time>
      </trkpt>
      <trkpt lat="48.73088" lon="7.3448">
        <ele>331.109528</ele>
        <time>2010-06-15T17:36:02Z</time>
      </trkpt>
      <trkpt lat="48.73105" lon="7.34496">
        <ele>328.257965</ele>
        <time>2010-06-15T17:36:07Z</time>
      </trkpt>
      <trkpt lat="48.73122" lon="7.3451">
        <ele>323.203278</ele>
        <time>2010-06-15T17:36:12Z</time>
      </trkpt>
      <trkpt lat="48.73199" lon="7.34598">
        <ele>307.33609</ele>
        <time>2010-06-15T17:36:49Z</time>
      </trkpt>
      <trkpt lat="48.73263" lon="7.34685">
        <ele>298.27359</ele>
        <time>2010-06-15T17:37:15Z</time>
      </trkpt>
      <trkpt lat="48.73337" lon="7.34763">
        <ele>291.039215</ele>
        <time>2010-06-15T17:37:45Z</time>
      </trkpt>
      <trkpt lat="48.73367" lon="7.34802">
        <ele>287.83609</ele>
        <time>2010-06-15T17:37:56Z</time>
      </trkpt>
    </trkseg>
  </trk>
</gpx>